createdAt,value
2022-08-08T00:00:50.593Z,27.66
2022-08-08T00:04:07.135Z,27.41
2022-08-08T00:07:28.543Z,27.61
2022-08-08T00:10:28.386Z,27.65
2022-08-08T00:14:16.781Z,27.53
2022-08-08T00:16:41.465Z,27.57
2022-08-08T00:19:46.696Z,27.44
2022-08-08T00:22:43.102Z,27.57
2022-08-08T00:25:39.133Z,27.35
2022-08-08T00:28:47.281Z,27.01
2022-08-08T00:32:29.127Z,26.94
2022-08-08T00:35:23.529Z,26.80
2022-08-08T00:38:32.089Z,26.97
2022-08-08T00:41:54.502Z,27.12
2022-08-08T00:45:21.655Z,26.96
2022-08-08T00:48:34.100Z,27.03
2022-08-08T00:51:57.254Z,26.93
2022-08-08T00:55:05.085Z,27.06
2022-08-08T00:58:04.546Z,27.09
2022-08-08T01:01:02.652Z,27.06
2022-08-08T01:04:02.837Z,27.05
2022-08-08T01:07:06.096Z,26.99
2022-08-08T01:10:17.614Z,27.07
2022-08-08T01:13:43.578Z,27.10
2022-08-08T01:16:57.837Z,27.16
2022-08-08T01:20:21.878Z,26.97
2022-08-08T01:24:02.353Z,27.14
2022-08-08T01:26:48.964Z,27.11
2022-08-08T01:30:03.366Z,27.08
2022-08-08T01:33:27.678Z,26.99
2022-08-08T01:36:48.604Z,27.15
2022-08-08T01:40:14.716Z,27.13
2022-08-08T01:43:06.337Z,27.06
2022-08-08T01:46:32.738Z,27.13
2022-08-08T01:49:46.401Z,27.17
2022-08-08T01:53:05.248Z,27.19
2022-08-08T01:56:30.613Z,27.13
2022-08-08T01:59:37.858Z,27.19
2022-08-08T02:03:04.446Z,27.13
2022-08-08T02:06:02.933Z,27.20
2022-08-08T02:09:17.486Z,27.19
2022-08-08T02:12:43.129Z,27.06
2022-08-08T02:15:34.552Z,27.14
2022-08-08T02:18:43.423Z,27.08
2022-08-08T02:22:09.487Z,27.07
2022-08-08T02:25:47.418Z,27.01
2022-08-08T02:28:48.381Z,27.15
2022-08-08T02:32:05.280Z,27.17
2022-08-08T02:35:08.942Z,27.10
2022-08-08T02:38:52.506Z,26.95
2022-08-08T02:41:58.428Z,26.87
2022-08-08T02:45:53.977Z,27.01
2022-08-08T02:49:02.133Z,26.97
2022-08-08T02:52:32.711Z,26.87
2022-08-08T02:55:37.211Z,26.45
2022-08-08T02:58:42.380Z,26.53
2022-08-08T03:01:47.217Z,26.48
2022-08-08T03:05:04.105Z,26.26
2022-08-08T03:08:34.215Z,26.07
2022-08-08T03:12:02.820Z,26.01
2022-08-08T03:16:01.433Z,25.88
2022-08-08T03:18:48.993Z,25.61
2022-08-08T03:21:54.649Z,25.85
2022-08-08T03:24:46.917Z,25.62
2022-08-08T03:27:41.860Z,25.57
2022-08-08T03:30:30.050Z,25.61
2022-08-08T03:33:54.826Z,25.73
2022-08-08T03:36:27.909Z,25.78
2022-08-08T03:39:17.552Z,25.85
2022-08-08T03:42:26.541Z,25.78
2022-08-08T03:46:06.494Z,25.93
2022-08-08T03:49:09.493Z,26.08
2022-08-08T03:51:51.024Z,26.13
2022-08-08T03:55:02.279Z,26.20
2022-08-08T03:58:34.857Z,26.27
2022-08-08T04:01:23.101Z,26.07
2022-08-08T04:04:09.137Z,26.25
2022-08-08T04:07:01.369Z,26.16
2022-08-08T04:10:00.465Z,26.25
2022-08-08T04:12:54.836Z,26.22
2022-08-08T04:15:54.372Z,26.32
2022-08-08T04:18:48.957Z,26.23
2022-08-08T04:21:41.223Z,26.33
2022-08-08T04:24:32.369Z,26.21
2022-08-08T04:28:02.723Z,26.33
2022-08-08T04:30:36.671Z,26.21
2022-08-08T04:33:41.776Z,26.29
2022-08-08T04:36:29.939Z,26.29
2022-08-08T04:40:04.391Z,26.24
2022-08-08T04:42:26.051Z,26.36
2022-08-08T04:45:12.960Z,26.42
2022-08-08T04:48:00.896Z,26.43
2022-08-08T04:50:51.162Z,26.38
2022-08-08T04:54:37.441Z,26.43
2022-08-08T04:56:48.923Z,26.38
2022-08-08T04:59:42.412Z,26.46
2022-08-08T05:02:30.905Z,26.44
2022-08-08T05:05:44.246Z,26.43
2022-08-08T05:08:26.978Z,26.51
2022-08-08T05:11:24.253Z,26.49
2022-08-08T05:14:16.278Z,26.58
2022-08-08T05:17:10.789Z,26.51
2022-08-08T05:20:09.271Z,26.47
2022-08-08T05:23:00.943Z,26.53
2022-08-08T05:25:51.591Z,26.49
2022-08-08T05:28:56.288Z,26.54
2022-08-08T05:32:04.905Z,26.53
2022-08-08T05:34:53.388Z,26.51
2022-08-08T05:37:58.862Z,26.55
2022-08-08T05:41:04.540Z,26.58
2022-08-08T05:44:03.907Z,26.53
2022-08-08T05:46:53.821Z,26.66
2022-08-08T05:49:57.308Z,26.59
2022-08-08T05:52:47.943Z,26.69
2022-08-08T05:56:07.889Z,26.66
2022-08-08T05:58:53.911Z,26.70
2022-08-08T06:01:57.799Z,26.73
2022-08-08T06:04:54.883Z,26.88
2022-08-08T06:07:47.249Z,26.93
2022-08-08T06:10:38.458Z,26.87
2022-08-08T06:13:30.006Z,26.89
2022-08-08T06:16:27.286Z,26.96
2022-08-08T06:19:33.228Z,27.14
2022-08-08T06:22:36.502Z,27.21
2022-08-08T12:28:55.064Z,31.07
2022-08-08T12:31:54.247Z,31.42
2022-08-08T12:34:43.204Z,31.85
2022-08-08T12:37:41.444Z,32.06
2022-08-08T12:40:59.144Z,32.54
2022-08-08T12:44:00.640Z,32.83
2022-08-08T12:47:00.934Z,33.14
2022-08-08T12:49:55.277Z,33.28
2022-08-08T12:52:42.570Z,33.60
2022-08-08T12:55:56.464Z,33.80
2022-08-08T12:58:51.298Z,33.84
2022-08-08T13:01:38.568Z,33.95
2022-08-08T13:04:32.792Z,34.10
2022-08-08T13:07:19.286Z,34.30
2022-08-08T13:10:32.653Z,34.49
2022-08-08T13:13:35.352Z,34.59
2022-08-08T13:16:25.906Z,34.62
2022-08-08T13:19:17.725Z,34.80
2022-08-08T13:22:04.619Z,34.83
2022-08-08T13:24:53.075Z,34.82
2022-08-08T13:27:39.210Z,34.95
2022-08-08T13:30:28.231Z,35.00
2022-08-08T13:33:18.462Z,34.95
2022-08-08T13:36:06.628Z,34.99
2022-08-08T13:38:52.659Z,35.08
2022-08-08T13:41:43.742Z,35.11
2022-08-08T13:44:36.058Z,35.09
2022-08-08T13:47:25.740Z,35.21
2022-08-08T13:50:38.736Z,35.26
2022-08-08T13:53:31.653Z,35.33
2022-08-08T13:56:41.534Z,35.50
2022-08-08T13:59:39.344Z,35.56
2022-08-08T14:02:32.874Z,35.71
2022-08-08T14:05:28.143Z,35.82
2022-08-08T14:08:16.836Z,36.09
2022-08-08T14:11:17.260Z,36.01
2022-08-08T14:14:08.504Z,36.35
2022-08-08T14:16:55.524Z,36.36
2022-08-08T14:19:57.608Z,36.36
2022-08-08T14:22:50.703Z,36.49
2022-08-08T14:25:46.529Z,36.62
2022-08-08T14:28:50.953Z,36.68
2022-08-08T14:32:08.789Z,36.79
2022-08-08T14:34:57.014Z,36.82
2022-08-08T14:38:00.999Z,36.81
2022-08-08T14:40:49.859Z,36.83
2022-08-08T14:44:09.938Z,36.95
2022-08-08T14:47:01.002Z,37.26
2022-08-08T14:50:06.433Z,37.42
2022-08-08T14:52:57.235Z,37.56
2022-08-08T14:55:43.758Z,37.61
2022-08-08T14:58:31.263Z,37.88
2022-08-08T15:01:23.829Z,38.01
2022-08-08T15:04:14.037Z,38.22
2022-08-08T15:07:00.006Z,38.35
2022-08-08T15:09:51.390Z,38.39
2022-08-08T15:12:39.476Z,38.33
2022-08-08T15:16:02.885Z,38.34
2022-08-08T15:18:35.001Z,38.30
2022-08-08T15:21:21.370Z,38.12
2022-08-08T15:24:12.589Z,38.06
2022-08-08T15:27:12.106Z,37.91
2022-08-08T15:30:08.107Z,37.78
2022-08-08T15:32:58.278Z,37.68
2022-08-08T15:35:44.293Z,37.66
2022-08-08T15:38:30.253Z,37.66
2022-08-08T15:41:16.159Z,37.66
2022-08-08T15:44:02.097Z,37.67
2022-08-08T15:46:50.870Z,37.57
2022-08-08T15:49:40.822Z,37.56
2022-08-08T15:52:26.954Z,37.41
2022-08-08T15:55:13.328Z,37.37
2022-08-08T15:57:59.904Z,37.23
2022-08-08T16:00:47.259Z,37.11
2022-08-08T16:03:36.656Z,36.90
2022-08-08T16:06:28.878Z,36.73
2022-08-08T16:13:08.805Z,36.58
2022-08-08T16:13:15.267Z,36.49
2022-08-08T16:15:32.544Z,36.34
2022-08-08T16:18:19.784Z,36.16
2022-08-08T16:21:20.644Z,36.06
2022-08-08T16:24:12.693Z,35.92
2022-08-08T16:26:58.956Z,35.71
2022-08-08T16:30:13.562Z,35.60
2022-08-08T16:32:51.922Z,35.50
2022-08-08T16:35:37.917Z,35.30
2022-08-08T16:38:26.399Z,35.25
2022-08-08T16:41:21.152Z,35.15
2022-08-08T16:44:12.561Z,35.03
2022-08-08T16:46:59.249Z,34.61
2022-08-08T16:49:47.666Z,34.62
2022-08-08T16:55:00.526Z,34.37
2022-08-08T16:55:52.578Z,34.15
2022-08-08T16:58:42.687Z,33.98
2022-08-08T17:01:31.030Z,33.81
2022-08-08T17:04:21.785Z,33.62
2022-08-08T17:07:08.527Z,33.48
2022-08-08T17:09:56.122Z,33.26
2022-08-08T17:12:47.070Z,33.10
2022-08-08T17:15:47.597Z,32.89
2022-08-08T17:18:41.526Z,32.79
2022-08-08T17:21:36.713Z,32.60
2022-08-08T17:24:30.243Z,32.51
2022-08-08T17:27:17.633Z,32.48
2022-08-08T17:30:08.258Z,32.29
2022-08-08T17:34:36.523Z,32.22
2022-08-08T17:36:10.106Z,32.10
2022-08-08T17:39:05.427Z,31.92
2022-08-08T17:42:05.412Z,31.91
2022-08-08T17:44:52.871Z,31.77
2022-08-08T17:47:40.788Z,31.62
2022-08-08T17:50:27.426Z,31.56
2022-08-08T17:53:13.652Z,31.48
2022-08-08T17:56:06.583Z,31.36
2022-08-08T17:58:54.178Z,31.29
2022-08-08T18:01:58.209Z,31.15
2022-08-08T18:04:50.823Z,31.15
2022-08-08T18:08:02.690Z,30.99
2022-08-08T18:10:43.513Z,30.98
2022-08-08T18:13:29.952Z,30.88
2022-08-08T18:16:23.602Z,30.89
2022-08-08T18:19:13.377Z,30.82
2022-08-08T18:22:02.478Z,30.76
2022-08-08T18:24:51.373Z,30.67
2022-08-08T18:27:38.325Z,30.64
2022-08-08T18:30:29.009Z,30.58
2022-08-08T18:33:36.420Z,30.49
2022-08-08T18:36:23.197Z,30.49
2022-08-08T18:39:11.154Z,30.40
2022-08-08T18:42:03.784Z,30.39
2022-08-08T18:44:55.150Z,30.29
2022-08-08T18:47:42.146Z,30.33
2022-08-08T18:50:28.368Z,30.28
2022-08-08T18:53:14.263Z,30.17
2022-08-08T18:56:02.409Z,30.19
2022-08-08T18:58:49.382Z,30.22
2022-08-08T19:02:28.294Z,30.17
2022-08-08T19:04:43.427Z,30.06
2022-08-08T19:07:33.540Z,30.08
2022-08-08T19:10:25.389Z,30.03
2022-08-08T19:13:20.870Z,30.04
2022-08-08T19:16:18.393Z,30.06
2022-08-08T19:19:09.944Z,30.06
2022-08-08T19:22:00.193Z,30.04
2022-08-08T19:26:00.122Z,29.98
2022-08-08T19:27:57.461Z,29.98
2022-08-08T19:30:51.454Z,29.91
2022-08-08T19:34:04.691Z,29.91
2022-08-08T19:36:59.102Z,29.95
2022-08-08T19:39:46.189Z,29.93
2022-08-08T19:42:37.178Z,29.89
2022-08-08T19:45:59.671Z,29.92
2022-08-08T19:48:31.152Z,29.90
2022-08-08T19:51:25.155Z,29.89
2022-08-08T19:54:20.748Z,29.84
2022-08-08T19:57:08.966Z,29.81
2022-08-08T19:59:55.915Z,29.75
2022-08-08T20:02:41.694Z,29.79
2022-08-08T20:06:14.294Z,29.83
2022-08-08T20:08:35.245Z,29.75
2022-08-08T20:11:22.035Z,29.72
2022-08-08T20:14:13.310Z,29.72
2022-08-08T20:17:14.709Z,29.66
2022-08-08T20:20:19.605Z,29.67
2022-08-08T20:23:12.260Z,29.59
2022-08-08T20:26:02.281Z,29.59
2022-08-08T20:28:51.023Z,29.58
2022-08-08T20:32:07.336Z,29.47
2022-08-08T20:34:47.972Z,29.47
2022-08-08T20:37:53.166Z,29.46
2022-08-08T20:40:41.874Z,29.42
2022-08-08T20:43:43.109Z,29.38
2022-08-08T20:46:30.454Z,29.36
2022-08-08T20:49:16.429Z,29.37
2022-08-08T20:52:03.045Z,29.19
2022-08-08T20:54:49.760Z,29.24
2022-08-08T20:57:43.759Z,29.17
2022-08-08T21:00:36.980Z,29.09
2022-08-08T21:03:29.854Z,29.00
2022-08-08T21:06:15.958Z,28.98
2022-08-08T21:09:02.091Z,28.98
2022-08-08T21:11:51.741Z,28.85
2022-08-08T21:14:38.319Z,28.91
2022-08-08T21:17:25.765Z,28.91
2022-08-08T21:20:13.741Z,28.80
2022-08-08T21:22:59.807Z,28.75
2022-08-08T21:25:49.148Z,28.71
2022-08-08T21:28:36.408Z,28.67
2022-08-08T21:31:23.820Z,28.59
2022-08-08T21:34:30.112Z,28.52
2022-08-08T21:37:19.080Z,28.52
2022-08-08T21:40:07.849Z,28.48
2022-08-08T21:42:54.253Z,28.46
2022-08-08T21:48:02.124Z,28.41
2022-08-08T21:48:51.631Z,28.46
2022-08-08T21:54:32.272Z,28.43
2022-08-08T21:55:02.356Z,28.38
2022-08-08T21:58:04.222Z,28.35
2022-08-08T22:00:54.913Z,28.25
2022-08-08T22:03:41.708Z,28.26
2022-08-08T22:06:38.047Z,28.20
2022-08-08T22:09:27.094Z,28.21
2022-08-08T22:12:27.277Z,28.18
2022-08-08T22:15:13.257Z,28.17
2022-08-08T22:18:01.453Z,28.17
2022-08-08T22:20:48.165Z,28.10
2022-08-08T22:23:35.969Z,28.01
2022-08-08T22:26:29.972Z,28.07
2022-08-08T22:30:02.273Z,27.96
2022-08-08T22:32:22.889Z,27.99
2022-08-08T22:35:08.997Z,27.93
2022-08-08T22:37:58.261Z,27.92
2022-08-08T22:40:48.224Z,27.95
2022-08-08T22:44:02.785Z,27.92
2022-08-08T22:46:41.433Z,27.91
2022-08-08T22:49:31.032Z,27.79
2022-08-08T22:52:25.960Z,27.84
2022-08-08T22:55:12.140Z,27.74
2022-08-08T22:57:57.952Z,27.76
2022-08-08T23:00:54.424Z,27.78
2022-08-08T23:03:53.498Z,27.77
2022-08-08T23:06:40.821Z,27.60
2022-08-08T23:09:30.743Z,27.70
2022-08-08T23:12:40.004Z,27.67
2022-08-08T23:16:39.188Z,27.50
2022-08-08T23:18:29.101Z,27.53
2022-08-08T23:21:15.669Z,27.49
2022-08-08T23:24:01.727Z,27.46
2022-08-08T23:26:55.613Z,27.43
2022-08-08T23:29:42.949Z,27.45
2022-08-08T23:32:41.667Z,27.44
2022-08-08T23:35:34.457Z,27.38
2022-08-08T23:38:41.594Z,27.25
2022-08-08T23:41:30.934Z,27.24
2022-08-08T23:44:32.455Z,27.22
2022-08-08T23:49:00.670Z,27.26
2022-08-08T23:50:30.685Z,27.23
2022-08-08T23:53:17.008Z,27.08
2022-08-08T23:56:31.930Z,27.19
2022-08-08T23:59:19.837Z,27.13
